createdAt,value
2018-06-04T00:02:19.218Z,32.83
2018-06-04T00:04:47.611Z,31.23
2018-06-04T00:07:16.024Z,28.43
2018-06-04T00:09:44.419Z,32.57
2018-06-04T00:12:12.852Z,31.80
2018-06-04T00:14:41.314Z,28.77
2018-06-04T00:17:09.737Z,31.63
2018-06-04T00:19:38.167Z,31.80
2018-06-04T00:22:06.593Z,32.70
2018-06-04T00:24:35.008Z,31.73
2018-06-04T00:27:03.516Z,30.57
2018-06-04T00:29:31.907Z,30.77
2018-06-04T00:32:00.327Z,29.23
2018-06-04T00:34:28.811Z,30.63
2018-06-04T00:36:57.203Z,34.77
2018-06-04T00:39:25.962Z,33.27
2018-06-04T00:41:54.376Z,29.83
2018-06-04T00:44:23.547Z,32.90
2018-06-04T00:46:51.971Z,31.50
2018-06-04T00:49:20.387Z,30.60
2018-06-04T00:51:48.847Z,31.43
2018-06-04T00:54:17.347Z,28.67
2018-06-04T00:56:45.747Z,28.77
2018-06-04T00:59:14.170Z,31.00
2018-06-04T01:01:42.632Z,30.00
2018-06-04T01:04:11.016Z,32.07
2018-06-04T01:06:39.446Z,34.40
2018-06-04T01:09:08.316Z,33.53
2018-06-04T01:11:36.707Z,30.87
2018-06-04T01:14:05.132Z,30.17
2018-06-04T01:16:33.531Z,30.27
2018-06-04T01:19:01.940Z,27.63
2018-06-04T01:21:30.348Z,28.63
2018-06-04T01:23:58.762Z,28.37
2018-06-04T01:26:27.166Z,27.90
2018-06-04T01:28:55.592Z,27.50
2018-06-04T01:31:24.016Z,26.60
2018-06-04T01:33:52.440Z,27.50
2018-06-04T01:36:20.872Z,31.37
2018-06-04T01:38:49.746Z,28.43
2018-06-04T01:41:18.144Z,29.53
2018-06-04T01:43:46.600Z,30.83
2018-06-04T01:46:15.007Z,33.30
2018-06-04T01:48:43.422Z,35.53
2018-06-04T01:51:11.822Z,34.90
2018-06-04T01:53:40.235Z,34.83
2018-06-04T01:56:09.116Z,37.13
2018-06-04T01:58:37.575Z,34.53
2018-06-04T02:01:05.985Z,35.47
2018-06-04T02:03:34.423Z,31.87
2018-06-04T02:06:02.837Z,34.57
2018-06-04T02:08:31.231Z,33.07
2018-06-04T02:10:59.643Z,36.93
2018-06-04T02:13:28.069Z,36.93
2018-06-04T02:15:56.462Z,35.70
2018-06-04T02:18:24.882Z,34.87
2018-06-04T02:20:53.284Z,35.60
2018-06-04T02:23:21.729Z,34.63
2018-06-04T02:25:50.122Z,37.60
2018-06-04T02:28:18.519Z,35.10
2018-06-04T02:30:46.931Z,38.80
2018-06-04T02:33:15.363Z,41.77
2018-06-04T02:35:43.764Z,39.53
2018-06-04T02:38:12.179Z,36.33
2018-06-04T02:40:41.996Z,39.27
2018-06-04T02:43:10.404Z,38.90
2018-06-04T02:45:38.797Z,39.03
2018-06-04T02:48:07.218Z,35.03
2018-06-04T02:50:35.629Z,38.67
2018-06-04T02:53:04.028Z,37.10
2018-06-04T02:55:32.431Z,35.90
2018-06-04T02:58:00.875Z,37.60
2018-06-04T03:00:29.303Z,37.80
2018-06-04T03:02:57.699Z,37.53
2018-06-04T03:05:26.177Z,43.00
2018-06-04T03:07:54.584Z,41.90
2018-06-04T03:10:22.988Z,36.23
2018-06-04T03:12:51.408Z,40.23
2018-06-04T03:15:19.855Z,39.03
2018-06-04T03:17:48.256Z,42.33
2018-06-04T03:20:16.720Z,39.27
2018-06-04T03:22:45.141Z,42.63
2018-06-04T03:25:13.556Z,44.07
2018-06-04T03:27:41.961Z,41.97
2018-06-04T03:30:10.356Z,39.07
2018-06-04T03:32:38.772Z,40.63
2018-06-04T03:35:07.179Z,34.50
2018-06-04T03:37:35.600Z,35.37
2018-06-04T03:40:04.039Z,36.90
2018-06-04T03:42:32.440Z,34.27
2018-06-04T03:45:00.852Z,36.53
2018-06-04T03:47:29.271Z,35.27
2018-06-04T03:49:57.659Z,32.10
2018-06-04T03:52:26.091Z,39.47
2018-06-04T03:54:54.202Z,35.77
2018-06-04T03:57:22.608Z,35.17
2018-06-04T03:59:51.022Z,35.13
2018-06-04T04:02:19.437Z,33.83
2018-06-04T04:04:47.828Z,36.00
2018-06-04T04:07:16.241Z,38.70
2018-06-04T04:09:44.723Z,34.37
2018-06-04T04:12:13.123Z,34.93
2018-06-04T04:14:42.467Z,36.97
2018-06-04T04:17:10.858Z,35.83
2018-06-04T04:19:39.351Z,35.50
2018-06-04T04:22:07.765Z,36.23
2018-06-04T04:24:36.208Z,35.40
2018-06-04T04:27:04.631Z,32.87
2018-06-04T04:29:33.791Z,32.17
2018-06-04T04:32:02.196Z,32.27
2018-06-04T04:34:31.137Z,34.70
2018-06-04T04:36:59.539Z,31.23
2018-06-04T04:39:27.941Z,32.40
2018-06-04T04:41:56.384Z,30.80
2018-06-04T04:44:24.792Z,33.03
2018-06-04T04:46:53.208Z,34.30
2018-06-04T04:49:21.317Z,36.00
2018-06-04T04:51:49.723Z,34.57
2018-06-04T04:54:18.165Z,32.97
2018-06-04T04:56:46.698Z,35.17
2018-06-04T04:59:15.089Z,36.27
2018-06-04T05:01:47.362Z,42.57
2018-06-04T05:04:16.339Z,39.70
2018-06-04T05:06:44.776Z,41.13
2018-06-04T05:09:13.427Z,41.40
2018-06-04T05:11:41.819Z,39.47
2018-06-04T05:14:10.248Z,39.97
2018-06-04T05:16:38.659Z,43.07
2018-06-04T05:19:07.067Z,36.53
2018-06-04T05:21:35.471Z,39.53
2018-06-04T05:24:03.919Z,36.90
2018-06-04T05:26:32.348Z,40.17
2018-06-04T05:29:02.112Z,41.17
2018-06-04T05:31:30.599Z,38.37
2018-06-04T05:33:59.182Z,42.77
2018-06-04T05:36:29.193Z,36.23
2018-06-04T05:38:57.596Z,38.27
2018-06-04T05:41:25.987Z,40.37
2018-06-04T05:43:54.403Z,38.17
2018-06-04T05:46:22.847Z,40.23
2018-06-04T05:48:51.260Z,38.13
2018-06-04T05:51:19.720Z,40.63
2018-06-04T05:53:48.751Z,36.97
2018-06-04T05:56:17.350Z,40.97
2018-06-04T05:58:45.747Z,36.30
2018-06-04T06:01:14.189Z,33.70
2018-06-04T06:03:42.639Z,36.83
2018-06-04T06:06:12.945Z,34.43
2018-06-04T06:08:41.374Z,38.33
2018-06-04T06:11:09.792Z,37.20
2018-06-04T06:13:38.202Z,33.87
2018-06-04T06:16:06.663Z,33.50
2018-06-04T06:18:35.110Z,30.53
2018-06-04T06:21:03.920Z,29.77
2018-06-04T06:23:32.347Z,29.48
2018-06-04T06:26:00.782Z,28.42
2018-06-04T06:28:29.213Z,30.97
2018-06-04T06:30:57.635Z,29.50
2018-06-04T06:33:26.054Z,27.27
2018-06-04T06:35:54.482Z,27.95
2018-06-04T06:38:22.975Z,27.98
2018-06-04T06:40:51.402Z,29.95
2018-06-04T06:43:20.258Z,29.55
2018-06-04T06:45:48.732Z,30.48
2018-06-04T06:48:17.150Z,30.05
2018-06-04T06:50:45.634Z,28.27
2018-06-04T06:53:14.033Z,30.65
2018-06-04T06:55:42.952Z,29.85
2018-06-04T06:58:11.401Z,28.62
2018-06-04T07:00:39.858Z,28.85
2018-06-04T07:03:08.329Z,29.30
2018-06-04T07:05:36.747Z,28.73
2018-06-04T07:08:05.167Z,28.85
2018-06-04T07:10:34.184Z,27.85
2018-06-04T07:13:02.588Z,28.23
2018-06-04T07:15:30.996Z,29.82
2018-06-04T07:17:59.399Z,29.27
2018-06-04T07:20:27.812Z,28.38
2018-06-04T07:22:55.935Z,29.23
2018-06-04T07:25:24.341Z,34.50
2018-06-04T07:27:52.934Z,32.00
2018-06-04T07:30:21.369Z,31.80
2018-06-04T07:32:49.783Z,33.33
2018-06-04T07:35:18.194Z,31.50
2018-06-04T07:37:46.627Z,33.25
2018-06-04T07:40:15.052Z,32.17
2018-06-04T07:42:43.516Z,32.00
2018-06-04T07:45:11.927Z,30.12
2018-06-04T07:47:40.359Z,30.95
2018-06-04T07:50:10.262Z,33.23
2018-06-04T07:52:38.707Z,30.88
2018-06-04T07:55:07.123Z,30.02
2018-06-04T07:57:35.551Z,31.17
2018-06-04T08:00:04.020Z,32.03
2018-06-04T08:02:32.418Z,31.55
2018-06-04T08:05:01.463Z,31.87
2018-06-04T08:07:29.888Z,31.07
2018-06-04T08:09:58.301Z,30.37
2018-06-04T08:12:26.724Z,29.95
2018-06-04T08:14:55.188Z,30.43
2018-06-04T08:17:23.617Z,29.95
2018-06-04T08:19:52.091Z,30.10
2018-06-04T08:22:20.526Z,30.10
2018-06-04T08:24:48.956Z,28.98
2018-06-04T08:27:17.370Z,28.45
2018-06-04T08:29:45.798Z,31.02
2018-06-04T08:32:14.239Z,29.75
2018-06-04T08:34:42.691Z,27.65
2018-06-04T08:37:11.114Z,29.10
2018-06-04T08:39:39.534Z,26.30
2018-06-04T08:42:07.980Z,26.93
2018-06-04T08:44:36.412Z,29.30
2018-06-04T08:47:04.825Z,28.07
2018-06-04T08:49:33.254Z,27.42
2018-06-04T08:52:01.715Z,28.35
2018-06-04T08:54:30.143Z,29.57
2018-06-04T08:56:58.563Z,29.18
2018-06-04T08:59:26.973Z,29.40
2018-06-04T09:01:55.379Z,28.40
2018-06-04T09:04:23.787Z,27.25
2018-06-04T09:06:52.203Z,28.57
2018-06-04T09:09:20.635Z,28.85
2018-06-04T09:11:49.067Z,30.08
2018-06-04T09:14:17.489Z,29.82
2018-06-04T09:16:45.936Z,30.37
2018-06-04T09:19:14.355Z,32.55
2018-06-04T09:21:42.835Z,29.80
2018-06-04T09:24:11.267Z,28.23
2018-06-04T09:26:39.684Z,26.62
2018-06-04T09:29:08.106Z,25.12
2018-06-04T09:31:36.515Z,27.52
2018-06-04T09:34:04.939Z,25.75
2018-06-04T09:36:33.360Z,25.75
2018-06-04T09:39:02.591Z,26.48
2018-06-04T09:41:31.000Z,28.60
2018-06-04T09:43:59.419Z,21.48
2018-06-04T09:46:27.854Z,24.20
2018-06-04T09:48:56.279Z,21.23
2018-06-04T09:51:24.728Z,20.72
2018-06-04T09:53:53.188Z,21.00
2018-06-04T09:56:21.626Z,21.35
2018-06-04T09:58:50.068Z,21.42
2018-06-04T10:01:19.200Z,27.42
2018-06-04T10:03:47.639Z,29.67
2018-06-04T10:06:16.047Z,31.45
2018-06-04T10:08:44.484Z,32.67
2018-06-04T10:11:12.879Z,29.37
2018-06-04T10:13:41.304Z,29.20
2018-06-04T10:16:09.731Z,33.18
2018-06-04T10:18:38.165Z,33.70
2018-06-04T10:21:06.573Z,32.55
2018-06-04T10:23:35.014Z,35.65
2018-06-04T10:26:03.420Z,35.28
2018-06-04T10:28:31.847Z,34.78
2018-06-04T10:31:00.258Z,33.28
2018-06-04T10:33:28.722Z,35.10
2018-06-04T10:35:57.127Z,37.20
2018-06-04T10:38:25.607Z,33.20
2018-06-04T10:40:54.023Z,32.23
2018-06-04T10:43:22.451Z,31.73
2018-06-04T10:45:50.848Z,32.13
2018-06-04T10:48:19.282Z,33.53
2018-06-04T10:50:47.687Z,35.15
2018-06-04T10:53:16.111Z,31.35
2018-06-04T10:55:44.550Z,32.30
2018-06-04T10:58:12.994Z,29.57
2018-06-04T11:00:41.412Z,30.92
2018-06-04T11:03:09.838Z,31.85
2018-06-04T11:05:38.326Z,31.20
2018-06-04T11:08:06.782Z,31.10
2018-06-04T11:10:35.200Z,31.85
2018-06-04T11:13:03.612Z,31.97
2018-06-04T11:15:32.077Z,31.17
2018-06-04T11:18:00.503Z,30.10
2018-06-04T11:20:29.396Z,32.70
2018-06-04T11:22:57.799Z,31.97
2018-06-04T11:25:26.199Z,30.43
2018-06-04T11:27:54.616Z,27.17
2018-06-04T11:30:23.050Z,31.27
2018-06-04T11:32:51.500Z,27.63
2018-06-04T11:35:19.925Z,28.40
2018-06-04T11:37:48.363Z,24.33
2018-06-04T11:40:16.769Z,27.03
2018-06-04T11:42:45.214Z,25.97
2018-06-04T11:45:13.640Z,29.37
2018-06-04T11:47:42.032Z,30.43
2018-06-04T11:50:10.447Z,28.00
2018-06-04T11:52:38.881Z,30.07
2018-06-04T11:55:07.280Z,28.87
2018-06-04T11:57:35.735Z,30.87
2018-06-04T12:00:04.168Z,27.10
2018-06-04T12:02:32.575Z,30.07
2018-06-04T12:05:00.991Z,26.20
2018-06-04T12:07:29.404Z,29.30
2018-06-04T12:09:57.813Z,30.87
2018-06-04T12:12:26.222Z,32.13
2018-06-04T12:14:54.658Z,31.87
2018-06-04T12:17:23.086Z,31.23
2018-06-04T12:19:51.483Z,27.23
2018-06-04T12:22:19.861Z,30.00
2018-06-04T12:24:48.359Z,31.67
2018-06-04T12:27:16.768Z,29.07
2018-06-04T12:29:45.171Z,28.53
2018-06-04T12:32:13.975Z,29.83
2018-06-04T12:34:42.439Z,26.10
2018-06-04T12:37:10.846Z,28.40
2018-06-04T12:39:39.291Z,30.13
2018-06-04T12:42:08.382Z,29.10
2018-06-04T12:44:36.817Z,31.13
2018-06-04T12:47:05.227Z,28.07
2018-06-04T12:49:33.655Z,31.20
2018-06-04T12:52:02.070Z,30.37
2018-06-04T12:54:30.474Z,30.13
2018-06-04T12:56:58.891Z,26.43
2018-06-04T12:59:27.298Z,26.17
2018-06-04T13:01:55.702Z,27.93
2018-06-04T13:04:24.121Z,29.87
2018-06-04T13:06:52.527Z,27.33
2018-06-04T13:09:20.930Z,28.33
2018-06-04T13:11:49.335Z,31.10
2018-06-04T13:14:17.750Z,28.43
2018-06-04T13:16:46.198Z,42.63
2018-06-04T13:19:14.616Z,30.17
2018-06-04T13:21:43.034Z,30.43
2018-06-04T13:24:11.439Z,27.97
2018-06-04T13:26:39.861Z,26.53
2018-06-04T13:29:08.267Z,32.43
2018-06-04T13:31:36.687Z,32.40
2018-06-04T13:34:05.082Z,27.07
2018-06-04T13:36:33.482Z,29.83
2018-06-04T13:39:01.887Z,29.17
2018-06-04T13:41:30.339Z,30.77
2018-06-04T13:43:58.746Z,26.93
2018-06-04T13:46:27.156Z,34.50
2018-06-04T13:48:55.562Z,33.70
2018-06-04T13:51:23.999Z,28.43
2018-06-04T13:53:52.431Z,28.73
2018-06-04T13:56:20.860Z,29.53
2018-06-04T13:58:49.275Z,25.93
2018-06-04T14:01:17.707Z,25.47
2018-06-04T14:03:46.111Z,26.17
2018-06-04T14:06:14.522Z,24.83
2018-06-04T14:08:42.928Z,25.27
2018-06-04T14:11:11.374Z,24.57
2018-06-04T14:13:39.858Z,23.23
2018-06-04T14:16:08.563Z,28.23
2018-06-04T14:18:36.992Z,25.20
2018-06-04T14:21:05.554Z,24.20
2018-06-04T14:23:33.971Z,22.57
2018-06-04T14:26:02.435Z,24.23
2018-06-04T14:28:30.854Z,22.93
2018-06-04T14:30:59.307Z,23.87
2018-06-04T14:33:27.713Z,25.53
2018-06-04T14:35:56.159Z,24.37
2018-06-04T14:38:24.582Z,21.60
2018-06-04T14:40:53.002Z,21.63
2018-06-04T14:43:21.430Z,19.63
2018-06-04T14:45:49.846Z,20.67
2018-06-04T14:48:18.264Z,19.43
2018-06-04T14:50:46.961Z,19.60
2018-06-04T14:53:15.360Z,27.13
2018-06-04T14:55:43.798Z,18.30
2018-06-04T14:58:12.219Z,15.77
2018-06-04T15:00:40.639Z,17.13
2018-06-04T15:03:09.049Z,17.40
2018-06-04T15:05:37.434Z,18.47
2018-06-04T15:08:06.023Z,13.67
2018-06-04T15:10:34.422Z,13.63
2018-06-04T15:13:02.837Z,16.07
2018-06-04T15:15:31.238Z,18.37
2018-06-04T15:17:59.683Z,18.67
2018-06-04T15:20:28.117Z,19.63
2018-06-04T15:22:56.535Z,16.73
2018-06-04T15:25:25.024Z,19.00
2018-06-04T15:27:53.546Z,17.40
2018-06-04T15:30:21.957Z,16.57
2018-06-04T15:32:51.291Z,19.40
2018-06-04T15:35:19.711Z,18.17
2018-06-04T15:37:48.166Z,15.40
2018-06-04T15:40:16.548Z,15.77
2018-06-04T15:42:44.984Z,20.57
2018-06-04T15:45:13.401Z,16.33
2018-06-04T15:47:41.830Z,15.27
2018-06-04T15:50:10.228Z,17.43
2018-06-04T15:52:38.694Z,20.00
2018-06-04T15:55:07.123Z,17.83
2018-06-04T15:57:35.523Z,20.73
2018-06-04T16:00:03.940Z,19.17
2018-06-04T16:02:32.375Z,19.43
2018-06-04T16:05:00.782Z,16.43
2018-06-04T16:07:29.199Z,17.13
2018-06-04T16:09:57.611Z,16.63
2018-06-04T16:12:26.024Z,17.30
2018-06-04T16:14:54.466Z,17.87
2018-06-04T16:17:22.846Z,19.17
2018-06-04T16:19:51.269Z,17.00
2018-06-04T16:22:19.664Z,17.00
2018-06-04T16:24:48.091Z,17.70
2018-06-04T16:27:16.511Z,17.03
2018-06-04T16:29:44.927Z,15.07
2018-06-04T16:32:13.351Z,14.33
2018-06-04T16:34:41.785Z,17.07
2018-06-04T16:37:10.202Z,14.30
2018-06-04T16:39:38.619Z,16.10
2018-06-04T16:42:07.050Z,14.00
2018-06-04T16:44:35.457Z,15.40
2018-06-04T16:47:03.871Z,16.40
2018-06-04T16:49:32.296Z,18.13
2018-06-04T16:52:00.755Z,16.37
2018-06-04T16:54:29.179Z,16.90
2018-06-04T16:56:57.590Z,16.00
2018-06-04T16:59:26.004Z,19.53
2018-06-04T17:01:54.443Z,18.07
2018-06-04T17:04:23.084Z,14.43
2018-06-04T17:06:53.134Z,14.87
2018-06-04T17:09:21.578Z,18.57
2018-06-04T17:11:49.995Z,17.80
2018-06-04T17:14:18.391Z,17.27
2018-06-04T17:16:46.811Z,16.27
2018-06-04T17:19:15.234Z,18.73
2018-06-04T17:21:43.607Z,18.10
2018-06-04T17:24:12.434Z,16.90
2018-06-04T17:26:40.839Z,16.40
2018-06-04T17:29:09.230Z,15.50
2018-06-04T17:31:37.644Z,17.83
2018-06-04T17:34:06.047Z,16.37
2018-06-04T17:36:34.440Z,15.33
2018-06-04T17:39:02.900Z,15.10
2018-06-04T17:41:31.315Z,15.00
2018-06-04T17:43:59.715Z,14.90
2018-06-04T17:46:28.154Z,16.57
2018-06-04T17:48:56.583Z,16.60
2018-06-04T17:51:24.978Z,15.37
2018-06-04T17:53:53.423Z,16.40
2018-06-04T17:56:21.834Z,14.50
2018-06-04T17:58:50.241Z,18.17
2018-06-04T18:01:18.908Z,16.87
2018-06-04T18:03:47.322Z,17.63
2018-06-04T18:06:15.727Z,17.30
2018-06-04T18:08:44.130Z,17.13
2018-06-04T18:11:12.546Z,17.23
2018-06-04T18:13:40.963Z,15.33
2018-06-04T18:16:09.412Z,15.50
2018-06-04T18:18:37.817Z,16.67
2018-06-04T18:21:06.237Z,14.40
2018-06-04T18:23:34.649Z,16.40
2018-06-04T18:26:03.058Z,13.40
2018-06-04T18:28:31.467Z,15.20
2018-06-04T18:30:59.860Z,14.53
2018-06-04T18:33:28.289Z,13.77
2018-06-04T18:35:56.691Z,14.70
2018-06-04T18:38:25.115Z,15.70
2018-06-04T18:40:53.519Z,13.83
2018-06-04T18:43:21.934Z,14.03
2018-06-04T18:45:51.013Z,14.23
2018-06-04T18:48:19.466Z,13.20
2018-06-04T18:50:47.867Z,12.40
2018-06-04T18:53:16.302Z,14.10
2018-06-04T18:55:44.707Z,14.20
2018-06-04T18:58:12.826Z,12.53
2018-06-04T19:00:41.227Z,13.17
2018-06-04T19:03:09.671Z,13.67
2018-06-04T19:05:38.059Z,13.83
2018-06-04T19:08:06.509Z,12.80
2018-06-04T19:10:34.931Z,14.53
2018-06-04T19:13:03.390Z,12.80
2018-06-04T19:15:31.815Z,13.77
2018-06-04T19:18:00.226Z,13.80
2018-06-04T19:20:28.635Z,12.40
2018-06-04T19:22:57.047Z,13.00
2018-06-04T19:25:25.449Z,14.07
2018-06-04T19:27:53.855Z,13.63
2018-06-04T19:30:22.310Z,15.10
2018-06-04T19:32:53.404Z,13.60
2018-06-04T19:35:21.831Z,13.23
2018-06-04T19:37:50.230Z,13.47
2018-06-04T19:40:18.938Z,14.00
2018-06-04T19:42:47.339Z,13.27
2018-06-04T19:45:16.353Z,13.93
2018-06-04T19:47:44.892Z,13.83
2018-06-04T19:50:13.333Z,15.70
2018-06-04T19:52:41.746Z,14.83
2018-06-04T19:55:10.675Z,15.67
2018-06-04T19:57:39.106Z,13.90
2018-06-04T20:00:07.522Z,14.53
2018-06-04T20:02:35.974Z,16.33
2018-06-04T20:05:04.406Z,15.53
2018-06-04T20:07:32.810Z,16.30
2018-06-04T20:10:01.214Z,16.07
2018-06-04T20:12:29.329Z,15.67
2018-06-04T20:14:57.739Z,15.80
2018-06-04T20:17:26.178Z,16.07
2018-06-04T20:19:54.582Z,16.00
2018-06-04T20:22:22.975Z,16.67
2018-06-04T20:24:51.390Z,15.33
2018-06-04T20:27:19.813Z,15.00
2018-06-04T20:29:48.209Z,16.53
2018-06-04T20:32:16.631Z,17.57
2018-06-04T20:34:45.042Z,17.30
2018-06-04T20:37:13.460Z,17.10
2018-06-04T20:39:41.908Z,17.87
2018-06-04T20:42:10.339Z,17.80
2018-06-04T20:44:38.762Z,18.67
2018-06-04T20:47:07.182Z,17.80
2018-06-04T20:49:35.607Z,18.47
2018-06-04T20:52:04.015Z,17.47
2018-06-04T20:54:32.449Z,17.87
2018-06-04T20:57:00.867Z,17.80
2018-06-04T20:59:29.272Z,17.30
2018-06-04T21:01:58.126Z,18.03
2018-06-04T21:04:26.809Z,19.60
2018-06-04T21:06:54.970Z,20.03
2018-06-04T21:09:23.421Z,22.50
2018-06-04T21:11:51.861Z,26.53
2018-06-04T21:14:20.285Z,21.63
2018-06-04T21:16:48.735Z,23.93
2018-06-04T21:19:17.183Z,27.03
2018-06-04T21:21:45.582Z,28.77
2018-06-04T21:24:14.046Z,26.63
2018-06-04T21:26:42.463Z,26.40
2018-06-04T21:29:10.904Z,27.03
2018-06-04T21:31:39.313Z,26.30
2018-06-04T21:34:08.030Z,25.80
2018-06-04T21:36:36.479Z,27.70
2018-06-04T21:39:06.634Z,27.53
2018-06-04T21:41:35.051Z,30.77
2018-06-04T21:44:03.472Z,34.63
2018-06-04T21:46:31.904Z,34.23
2018-06-04T21:49:00.385Z,37.50
2018-06-04T21:51:28.812Z,37.23
2018-06-04T21:53:57.266Z,38.67
2018-06-04T21:56:25.706Z,37.57
2018-06-04T21:58:54.128Z,41.30
2018-06-04T22:01:22.527Z,40.17
2018-06-04T22:03:50.993Z,44.00
2018-06-04T22:06:19.424Z,42.30
2018-06-04T22:08:47.868Z,41.03
2018-06-04T22:11:16.284Z,43.10
2018-06-04T22:13:44.749Z,49.17
2018-06-04T22:16:13.158Z,47.07
2018-06-04T22:18:41.584Z,47.83
2018-06-04T22:21:09.995Z,45.67
2018-06-04T22:23:38.399Z,51.00
2018-06-04T22:26:06.807Z,46.87
2018-06-04T22:28:35.255Z,47.43
2018-06-04T22:31:03.667Z,49.83
2018-06-04T22:33:32.103Z,44.30
2018-06-04T22:36:00.498Z,44.60
2018-06-04T22:38:28.926Z,43.40
2018-06-04T22:40:57.366Z,44.67
2018-06-04T22:43:25.783Z,43.23
2018-06-04T22:45:54.189Z,43.03
2018-06-04T22:48:22.670Z,46.27
2018-06-04T22:50:51.127Z,42.43
2018-06-04T22:53:19.541Z,38.30
2018-06-04T22:55:47.951Z,45.10
2018-06-04T22:58:16.357Z,46.13
2018-06-04T23:00:47.892Z,45.03
2018-06-04T23:03:16.314Z,46.57
2018-06-04T23:05:44.733Z,45.30
2018-06-04T23:08:13.143Z,45.70
2018-06-04T23:10:41.572Z,48.17
2018-06-04T23:13:09.971Z,46.73
2018-06-04T23:15:38.418Z,47.90
2018-06-04T23:18:06.531Z,51.07
2018-06-04T23:20:34.968Z,51.13
2018-06-04T23:23:04.026Z,51.60
2018-06-04T23:25:33.307Z,52.53
2018-06-04T23:28:01.719Z,56.17
2018-06-04T23:30:30.176Z,56.27
2018-06-04T23:32:58.606Z,59.50
2018-06-04T23:35:27.120Z,56.17
2018-06-04T23:37:55.555Z,59.80
2018-06-04T23:40:23.984Z,60.73
2018-06-04T23:42:52.388Z,58.77
2018-06-04T23:45:20.794Z,63.20
2018-06-04T23:47:49.204Z,58.53
2018-06-04T23:50:17.643Z,53.83
2018-06-04T23:52:46.115Z,49.17
2018-06-04T23:55:14.515Z,49.67
2018-06-04T23:57:42.926Z,49.70
